createdAt,value
2023-01-17T00:00:01.902Z,1.54
2023-01-17T00:05:26.022Z,1.54
2023-01-17T00:10:33.801Z,1.54
2023-01-17T00:15:40.866Z,1.50
2023-01-17T00:21:06.226Z,1.56
2023-01-17T00:26:16.848Z,1.65
2023-01-17T00:31:22.963Z,1.72
2023-01-17T00:36:29.059Z,1.74
2023-01-17T00:41:35.036Z,1.77
2023-01-17T00:46:59.853Z,1.82
2023-01-17T00:52:26.314Z,1.90
2023-01-17T00:57:51.125Z,1.94
2023-01-17T01:03:16.301Z,1.92
2023-01-17T01:08:43.608Z,1.94
2023-01-17T01:14:08.627Z,1.95
2023-01-17T01:19:33.403Z,1.88
2023-01-17T01:24:58.619Z,1.79
2023-01-17T01:30:25.239Z,1.81
2023-01-17T01:35:32.893Z,1.83
2023-01-17T01:40:45.278Z,1.77
2023-01-17T01:45:58.316Z,1.68
2023-01-17T01:51:08.735Z,1.66
2023-01-17T01:56:17.202Z,1.67
2023-01-17T02:01:24.565Z,1.73
2023-01-17T02:06:35.159Z,1.76
2023-01-17T02:11:43.253Z,1.73
2023-01-17T02:17:03.577Z,1.64
2023-01-17T02:22:35.406Z,1.48
2023-01-17T02:27:57.871Z,1.24
2023-01-17T02:33:23.987Z,1.06
2023-01-17T02:38:39.542Z,0.99
2023-01-17T02:43:50.203Z,0.96
2023-01-17T02:48:59.296Z,0.85
2023-01-17T02:54:25.767Z,0.71
2023-01-17T02:59:42.331Z,0.48
2023-01-17T03:04:54.164Z,0.40
2023-01-17T03:10:09.445Z,0.39
2023-01-17T03:15:19.227Z,0.29
2023-01-17T03:20:26.935Z,0.31
2023-01-17T03:25:34.008Z,0.34
2023-01-17T03:30:41.261Z,0.32
2023-01-17T03:35:49.594Z,0.30
2023-01-17T03:40:58.792Z,0.25
2023-01-17T03:46:07.950Z,0.11
2023-01-17T03:51:15.373Z,-0.07
2023-01-17T03:56:23.092Z,-0.16
2023-01-17T04:01:30.432Z,-0.26
2023-01-17T04:06:37.693Z,-0.33
2023-01-17T04:11:43.244Z,-0.42
2023-01-17T04:16:50.347Z,-0.52
2023-01-17T04:21:57.667Z,-0.66
2023-01-17T04:27:05.293Z,-0.72
2023-01-17T04:32:12.567Z,-0.76
2023-01-17T04:37:20.302Z,-0.81
2023-01-17T04:42:28.120Z,-0.82
2023-01-17T04:47:36.155Z,-0.81
2023-01-17T04:52:43.408Z,-0.85
2023-01-17T04:57:49.079Z,-0.93
2023-01-17T05:02:56.432Z,-0.97
2023-01-17T05:08:03.688Z,-0.97
2023-01-17T05:13:09.161Z,-0.88
2023-01-17T05:18:18.187Z,-0.79
2023-01-17T05:23:26.136Z,-0.70
2023-01-17T05:28:34.354Z,-0.59
2023-01-17T05:33:41.752Z,-0.57
2023-01-17T05:38:49.182Z,-0.47
2023-01-17T05:43:56.702Z,-0.30
2023-01-17T05:49:02.373Z,-0.14
2023-01-17T05:54:10.641Z,-0.08
2023-01-17T05:59:25.614Z,-0.09
2023-01-17T06:04:43.884Z,-0.13
2023-01-17T06:09:51.127Z,-0.18
2023-01-17T06:14:56.696Z,-0.13
2023-01-17T06:20:04.454Z,-0.12
2023-01-17T06:25:12.677Z,-0.07
2023-01-17T06:30:20.498Z,0.01
2023-01-17T06:35:27.535Z,0.09
2023-01-17T06:40:33.461Z,0.11
2023-01-17T06:45:40.814Z,0.09
2023-01-17T06:50:48.535Z,0.04
2023-01-17T06:55:56.665Z,0.03
2023-01-17T07:01:09.565Z,0.08
2023-01-17T07:06:16.883Z,0.12
2023-01-17T07:11:24.608Z,0.19
2023-01-17T07:16:31.787Z,0.25
2023-01-17T07:21:39.268Z,0.30
2023-01-17T07:26:44.879Z,0.34
2023-01-17T07:31:52.842Z,0.37
2023-01-17T07:37:00.282Z,0.39
2023-01-17T07:42:07.829Z,0.41
2023-01-17T07:47:15.171Z,0.46
2023-01-17T07:52:23.113Z,0.42
2023-01-17T07:57:32.796Z,0.45
2023-01-17T08:02:40.852Z,0.54
2023-01-17T08:07:48.043Z,0.60
2023-01-17T08:12:53.731Z,0.63
2023-01-17T08:18:01.028Z,0.68
2023-01-17T08:23:06.693Z,0.77
2023-01-17T08:28:14.064Z,0.87
2023-01-17T08:33:19.888Z,0.97
2023-01-17T08:38:27.570Z,1.07
2023-01-17T08:43:34.795Z,1.18
2023-01-17T08:48:40.438Z,1.32
2023-01-17T08:53:48.850Z,1.49
2023-01-17T08:58:56.573Z,1.61
2023-01-17T09:04:03.730Z,1.71
2023-01-17T09:09:11.195Z,1.79
2023-01-17T09:14:18.701Z,1.89
2023-01-17T09:19:25.898Z,2.00
2023-01-17T09:24:31.459Z,2.10
2023-01-17T09:29:39.077Z,2.23
2023-01-17T09:34:48.011Z,2.39
2023-01-17T09:39:55.212Z,2.53
2023-01-17T09:45:00.994Z,2.68
2023-01-17T09:50:22.651Z,2.80
2023-01-17T09:55:35.533Z,2.95
2023-01-17T10:00:54.727Z,3.11
2023-01-17T10:06:23.978Z,3.29
2023-01-17T10:11:40.597Z,3.47
2023-01-17T10:16:55.667Z,3.62
2023-01-17T10:22:17.965Z,3.74
2023-01-17T10:27:31.764Z,3.87
2023-01-17T10:32:48.232Z,3.96
2023-01-17T10:37:58.394Z,4.04
2023-01-17T10:43:16.888Z,4.08
2023-01-17T10:48:35.171Z,4.12
2023-01-17T10:53:54.840Z,4.24
2023-01-17T11:02:43.363Z,4.46
2023-01-17T11:08:03.172Z,4.57
2023-01-17T11:13:25.458Z,4.66
2023-01-17T11:18:35.940Z,4.79
2023-01-17T11:23:45.284Z,4.97
2023-01-17T11:28:53.404Z,5.08
2023-01-17T11:34:18.524Z,5.18
2023-01-17T11:39:29.009Z,5.30
2023-01-17T11:44:37.260Z,5.40
2023-01-17T11:49:46.482Z,5.52
2023-01-17T11:54:55.731Z,5.58
2023-01-17T12:00:16.740Z,5.58
2023-01-17T12:05:47.411Z,5.58
2023-01-17T12:11:04.365Z,5.61
2023-01-17T12:16:34.168Z,5.61
2023-01-17T12:21:49.777Z,5.59
2023-01-17T12:27:06.399Z,5.61
2023-01-17T12:32:31.930Z,5.64
2023-01-17T12:37:42.218Z,5.65
2023-01-17T12:42:54.881Z,5.64
2023-01-17T12:48:07.113Z,5.69
2023-01-17T12:53:25.476Z,5.72
2023-01-17T12:58:40.115Z,5.72
2023-01-17T13:03:57.735Z,5.74
2023-01-17T13:09:06.989Z,5.78
2023-01-17T13:14:14.155Z,5.80
2023-01-17T13:19:24.782Z,5.82
2023-01-17T13:24:45.812Z,5.82
2023-01-17T13:30:06.000Z,5.83
2023-01-17T13:35:27.679Z,5.86
2023-01-17T13:40:50.849Z,5.87
2023-01-17T13:46:00.689Z,5.87
2023-01-17T13:51:09.508Z,5.86
2023-01-17T13:56:25.336Z,5.82
2023-01-17T14:01:56.368Z,5.77
2023-01-17T14:07:18.592Z,5.74
2023-01-17T14:12:33.898Z,5.69
2023-01-17T14:17:52.384Z,5.64
2023-01-17T14:23:02.997Z,5.57
2023-01-17T14:28:25.022Z,5.49
2023-01-17T14:33:36.912Z,5.43
2023-01-17T14:38:47.027Z,5.37
2023-01-17T14:43:55.300Z,5.30
2023-01-17T14:49:07.694Z,5.21
2023-01-17T14:54:23.036Z,5.11
2023-01-17T14:59:30.417Z,5.01
2023-01-17T15:04:40.077Z,4.92
2023-01-17T15:09:47.705Z,4.80
2023-01-17T15:14:58.865Z,4.57
2023-01-17T15:20:17.334Z,4.39
2023-01-17T15:25:24.919Z,4.24
2023-01-17T15:30:32.448Z,4.11
2023-01-17T15:35:39.548Z,3.97
2023-01-17T15:40:46.029Z,3.85
2023-01-17T15:46:00.400Z,3.73
2023-01-17T15:51:08.316Z,3.59
2023-01-17T15:56:31.051Z,3.48
2023-01-17T16:01:39.024Z,3.43
2023-01-17T16:06:46.905Z,3.42
2023-01-17T16:11:54.195Z,3.40
2023-01-17T16:17:03.002Z,3.36
2023-01-17T16:22:12.643Z,3.27
2023-01-17T16:27:20.230Z,3.12
2023-01-17T16:32:28.360Z,2.89
2023-01-17T16:37:35.630Z,2.70
2023-01-17T16:42:42.812Z,2.60
2023-01-17T16:47:49.521Z,2.61
2023-01-17T16:52:57.470Z,2.66
2023-01-17T17:02:26.293Z,2.60
2023-01-17T17:07:35.515Z,2.49
2023-01-17T17:12:42.695Z,2.38
2023-01-17T17:17:49.951Z,2.25
2023-01-17T17:22:57.573Z,2.20
2023-01-17T17:28:05.104Z,2.15
2023-01-17T17:33:12.700Z,2.13
2023-01-17T17:38:20.330Z,2.15
2023-01-17T17:43:27.934Z,2.19
2023-01-17T17:48:35.425Z,2.14
2023-01-17T17:53:42.636Z,2.08
2023-01-17T17:58:48.194Z,2.06
2023-01-17T18:03:57.595Z,2.03
2023-01-17T18:09:05.321Z,2.00
2023-01-17T18:14:14.942Z,1.99
2023-01-17T18:19:24.173Z,2.02
2023-01-17T18:24:32.007Z,2.05
2023-01-17T18:29:39.414Z,2.05
2023-01-17T18:34:47.891Z,2.02
2023-01-17T18:39:55.634Z,1.98
2023-01-17T18:45:03.149Z,2.03
2023-01-17T18:50:12.340Z,2.05
2023-01-17T18:55:19.828Z,2.07
2023-01-17T19:00:27.823Z,2.09
2023-01-17T19:05:38.463Z,2.15
2023-01-17T19:10:45.822Z,2.22
2023-01-17T19:15:54.469Z,2.30
2023-01-17T19:21:08.635Z,2.38
2023-01-17T19:26:17.398Z,2.45
2023-01-17T19:31:27.299Z,2.51
2023-01-17T19:36:37.649Z,2.53
2023-01-17T19:41:47.127Z,2.54
2023-01-17T19:46:56.870Z,2.53
2023-01-17T19:52:04.133Z,2.53
2023-01-17T19:57:09.907Z,2.55
2023-01-17T20:02:18.091Z,2.55
2023-01-17T20:07:25.385Z,2.55
2023-01-17T20:12:31.677Z,2.53
2023-01-17T20:17:39.027Z,2.52
2023-01-17T20:22:46.674Z,2.48
2023-01-17T20:27:55.187Z,2.45
2023-01-17T20:33:03.543Z,2.47
2023-01-17T20:38:12.161Z,2.50
2023-01-17T20:43:19.459Z,2.53
2023-01-17T20:48:26.738Z,2.55
2023-01-17T20:53:32.811Z,2.57
2023-01-17T20:58:40.140Z,2.57
2023-01-17T21:03:49.445Z,2.56
2023-01-17T21:08:56.888Z,2.53
2023-01-17T21:14:05.877Z,2.51
2023-01-17T21:19:17.382Z,2.54
2023-01-17T21:24:24.821Z,2.59
2023-01-17T21:29:32.759Z,2.62
2023-01-17T21:34:40.357Z,2.61
2023-01-17T21:39:51.667Z,2.57
2023-01-17T21:44:58.907Z,2.55
2023-01-17T21:50:04.935Z,2.52
2023-01-17T21:55:27.040Z,2.53
2023-01-17T22:00:34.285Z,2.53
2023-01-17T22:05:42.003Z,2.56
2023-01-17T22:10:49.373Z,2.60
2023-01-17T22:16:03.210Z,2.63
2023-01-17T22:21:13.248Z,2.66
2023-01-17T22:26:24.433Z,2.67
2023-01-17T22:31:32.080Z,2.68
2023-01-17T22:36:39.579Z,2.71
2023-01-17T22:41:46.799Z,2.75
2023-01-17T22:46:52.517Z,2.79
2023-01-17T22:51:59.734Z,2.82
2023-01-17T22:57:07.879Z,2.82
2023-01-17T23:02:16.580Z,2.82
2023-01-17T23:07:27.351Z,2.83
2023-01-17T23:12:34.989Z,2.83
2023-01-17T23:17:59.900Z,2.84
2023-01-17T23:23:07.281Z,2.83
2023-01-17T23:28:21.081Z,2.81
2023-01-17T23:33:28.312Z,2.81
2023-01-17T23:38:37.952Z,2.79
2023-01-17T23:43:45.433Z,2.75
2023-01-17T23:48:53.245Z,2.67
2023-01-17T23:54:05.654Z,2.61
2023-01-17T23:59:14.112Z,2.57
